sensor_id;sensor_type;location;lat;lon;timestamp;pressure;altitude;pressure_sealevel;temperature;humidity
73383;BME280;61600;48.126;11.542;2023-04-07T00:02:24;95617.72;;;7.82;43.51
73383;BME280;61600;48.126;11.542;2023-04-07T00:04:51;95613.09;;;7.72;43.50
73383;BME280;61600;48.126;11.542;2023-04-07T00:07:17;95615.56;;;7.74;43.79
73383;BME280;61600;48.126;11.542;2023-04-07T00:09:43;95614.75;;;7.88;43.77
73383;BME280;61600;48.126;11.542;2023-04-07T00:12:09;95618.84;;;7.91;43.70
73383;BME280;61600;48.126;11.542;2023-04-07T00:14:34;95613.16;;;7.87;43.83
73383;BME280;61600;48.126;11.542;2023-04-07T00:17:00;95615.28;;;7.85;44.07
73383;BME280;61600;48.126;11.542;2023-04-07T00:19:26;95613.41;;;7.96;44.08
73383;BME280;61600;48.126;11.542;2023-04-07T00:21:52;95615.56;;;7.89;44.06
73383;BME280;61600;48.126;11.542;2023-04-07T00:24:18;95620.97;;;7.89;44.26
73383;BME280;61600;48.126;11.542;2023-04-07T00:26:44;95614.75;;;7.73;44.91
73383;BME280;61600;48.126;11.542;2023-04-07T00:29:10;95611.75;;;7.75;45.00
73383;BME280;61600;48.126;11.542;2023-04-07T00:31:35;95609.06;;;7.80;45.02
73383;BME280;61600;48.126;11.542;2023-04-07T00:34:01;95614.97;;;7.62;45.46
73383;BME280;61600;48.126;11.542;2023-04-07T00:36:29;95609.31;;;7.68;45.54
73383;BME280;61600;48.126;11.542;2023-04-07T00:38:56;95607.66;;;7.67;45.76
73383;BME280;61600;48.126;11.542;2023-04-07T00:41:21;95606.09;;;7.76;45.61
73383;BME280;61600;48.126;11.542;2023-04-07T00:43:50;95611.75;;;7.70;45.83
73383;BME280;61600;48.126;11.542;2023-04-07T00:46:17;95604.97;;;7.67;46.04
73383;BME280;61600;48.126;11.542;2023-04-07T00:48:46;95598.78;;;7.82;45.57
73383;BME280;61600;48.126;11.542;2023-04-07T00:51:12;95603.66;;;7.85;45.54
73383;BME280;61600;48.126;11.542;2023-04-07T00:53:41;95596.06;;;7.67;46.07
73383;BME280;61600;48.126;11.542;2023-04-07T00:56:07;95595.28;;;7.91;45.32
73383;BME280;61600;48.126;11.542;2023-04-07T00:58:34;95588.22;;;7.95;45.14
73383;BME280;61600;48.126;11.542;2023-04-07T01:01:29;95588.50;;;7.84;45.25
73383;BME280;61600;48.126;11.542;2023-04-07T01:04:01;95590.59;;;7.57;45.75
73383;BME280;61600;48.126;11.542;2023-04-07T01:06:30;95585.22;;;7.82;45.48
73383;BME280;61600;48.126;11.542;2023-04-07T01:09:10;95582.53;;;7.87;45.27
73383;BME280;61600;48.126;11.542;2023-04-07T01:12:04;95584.69;;;7.80;45.18
73383;BME280;61600;48.126;11.542;2023-04-07T01:14:41;95584.44;;;7.86;45.00
73383;BME280;61600;48.126;11.542;2023-04-07T01:17:11;95584.16;;;7.93;45.25
73383;BME280;61600;48.126;11.542;2023-04-07T01:19:56;95579.03;;;7.86;45.38
73383;BME280;61600;48.126;11.542;2023-04-07T01:22:31;95572.25;;;7.89;45.64
73383;BME280;61600;48.126;11.542;2023-04-07T01:27:48;95579.28;;;7.70;46.09
73383;BME280;61600;48.126;11.542;2023-04-07T01:30:20;95573.03;;;7.69;46.23
73383;BME280;61600;48.126;11.542;2023-04-07T01:32:51;95574.63;;;7.60;46.46
73383;BME280;61600;48.126;11.542;2023-04-07T01:35:21;95579.41;;;7.13;47.98
73383;BME280;61600;48.126;11.542;2023-04-07T01:37:48;95574.88;;;7.43;47.43
73383;BME280;61600;48.126;11.542;2023-04-07T01:40:15;95579.78;;;7.57;47.50
73383;BME280;61600;48.126;11.542;2023-04-07T01:42:42;95587.66;;;7.68;47.23
73383;BME280;61600;48.126;11.542;2023-04-07T01:45:08;95584.94;;;7.58;47.55
73383;BME280;61600;48.126;11.542;2023-04-07T01:47:35;95575.75;;;7.79;47.38
73383;BME280;61600;48.126;11.542;2023-04-07T01:50:06;95581.97;;;7.85;47.12
73383;BME280;61600;48.126;11.542;2023-04-07T01:52:37;95570.63;;;7.88;47.36
73383;BME280;61600;48.126;11.542;2023-04-07T01:55:04;95570.09;;;7.81;47.82
73383;BME280;61600;48.126;11.542;2023-04-07T01:57:30;95574.13;;;7.78;47.88
73383;BME280;61600;48.126;11.542;2023-04-07T01:59:56;95570.34;;;7.79;48.07
73383;BME280;61600;48.126;11.542;2023-04-07T02:02:22;95570.63;;;7.88;48.27
73383;BME280;61600;48.126;11.542;2023-04-07T02:04:55;95566.28;;;7.87;48.40
73383;BME280;61600;48.126;11.542;2023-04-07T02:07:30;95567.91;;;7.83;48.90
73383;BME280;61600;48.126;11.542;2023-04-07T02:09:58;95563.03;;;7.85;48.87
73383;BME280;61600;48.126;11.542;2023-04-07T02:12:27;95561.94;;;7.96;48.94
73383;BME280;61600;48.126;11.542;2023-04-07T02:14:57;95559.25;;;7.91;49.52
73383;BME280;61600;48.126;11.542;2023-04-07T02:17:24;95562.50;;;8.13;49.14
73383;BME280;61600;48.126;11.542;2023-04-07T02:19:52;95558.16;;;7.87;49.88
73383;BME280;61600;48.126;11.542;2023-04-07T02:22:18;95554.91;;;7.85;50.26
73383;BME280;61600;48.126;11.542;2023-04-07T02:24:44;95563.59;;;7.87;50.72
73383;BME280;61600;48.126;11.542;2023-04-07T02:27:10;95558.69;;;7.79;50.97
73383;BME280;61600;48.126;11.542;2023-04-07T02:29:35;95558.72;;;7.94;51.27
73383;BME280;61600;48.126;11.542;2023-04-07T02:32:01;95557.09;;;7.93;51.67
73383;BME280;61600;48.126;11.542;2023-04-07T02:34:27;95557.09;;;7.98;52.39
73383;BME280;61600;48.126;11.542;2023-04-07T02:36:55;95561.41;;;8.04;52.45
73383;BME280;61600;48.126;11.542;2023-04-07T02:39:22;95556.00;;;7.89;53.15
73383;BME280;61600;48.126;11.542;2023-04-07T02:41:48;95554.94;;;7.95;53.33
73383;BME280;61600;48.126;11.542;2023-04-07T02:44:14;95557.09;;;7.98;53.46
73383;BME280;61600;48.126;11.542;2023-04-07T02:46:40;95560.34;;;7.80;54.39
73383;BME280;61600;48.126;11.542;2023-04-07T02:49:22;95555.19;;;7.78;54.89
73383;BME280;61600;48.126;11.542;2023-04-07T02:51:48;95550.31;;;7.90;54.66
73383;BME280;61600;48.126;11.542;2023-04-07T02:54:16;95559.53;;;7.84;55.54
73383;BME280;61600;48.126;11.542;2023-04-07T02:56:42;95561.41;;;7.79;56.08
73383;BME280;61600;48.126;11.542;2023-04-07T02:59:08;95565.47;;;7.71;56.68
73383;BME280;61600;48.126;11.542;2023-04-07T03:01:36;95567.88;;;7.68;56.53
73383;BME280;61600;48.126;11.542;2023-04-07T03:04:03;95555.72;;;7.95;56.13
73383;BME280;61600;48.126;11.542;2023-04-07T03:06:29;95565.22;;;7.88;56.40
73383;BME280;61600;48.126;11.542;2023-04-07T03:08:56;95563.28;;;7.88;56.64
73383;BME280;61600;48.126;11.542;2023-04-07T03:11:24;95553.81;;;7.86;57.00
73383;BME280;61600;48.126;11.542;2023-04-07T03:13:50;95560.59;;;7.83;57.26
73383;BME280;61600;48.126;11.542;2023-04-07T03:16:16;95557.88;;;7.88;57.52
73383;BME280;61600;48.126;11.542;2023-04-07T03:18:44;95558.69;;;7.79;57.72
73383;BME280;61600;48.126;11.542;2023-04-07T03:21:11;95560.31;;;7.70;58.51
73383;BME280;61600;48.126;11.542;2023-04-07T03:23:37;95554.91;;;7.80;58.49
73383;BME280;61600;48.126;11.542;2023-04-07T03:26:03;95556.00;;;7.79;59.04
73383;BME280;61600;48.126;11.542;2023-04-07T03:28:29;95556.25;;;7.62;59.60
73383;BME280;61600;48.126;11.542;2023-04-07T03:30:55;95548.94;;;7.78;59.77
73383;BME280;61600;48.126;11.542;2023-04-07T03:33:21;95550.84;;;7.92;59.68
73383;BME280;61600;48.126;11.542;2023-04-07T03:35:51;95545.69;;;8.06;59.26
73383;BME280;61600;48.126;11.542;2023-04-07T03:38:17;95541.09;;;7.81;60.19
73383;BME280;61600;48.126;11.542;2023-04-07T03:40:43;95545.19;;;7.94;60.45
73383;BME280;61600;48.126;11.542;2023-04-07T03:43:08;95547.88;;;7.99;60.22
73383;BME280;61600;48.126;11.542;2023-04-07T03:45:38;95543.56;;;7.88;60.29
73383;BME280;61600;48.126;11.542;2023-04-07T03:48:04;95534.88;;;7.91;60.19
73383;BME280;61600;48.126;11.542;2023-04-07T03:50:30;95533.25;;;7.90;60.87
73383;BME280;61600;48.126;11.542;2023-04-07T03:52:56;95541.41;;;7.95;60.50
73383;BME280;61600;48.126;11.542;2023-04-07T03:55:21;95531.88;;;7.92;59.44
73383;BME280;61600;48.126;11.542;2023-04-07T03:57:47;95533.25;;;7.90;60.68
73383;BME280;61600;48.126;11.542;2023-04-07T04:00:13;95537.06;;;7.94;60.50
73383;BME280;61600;48.126;11.542;2023-04-07T04:02:39;95524.31;;;7.94;60.60
73383;BME280;61600;48.126;11.542;2023-04-07T04:05:05;95539.75;;;7.99;60.31
73383;BME280;61600;48.126;11.542;2023-04-07T04:07:31;95524.59;;;8.08;59.88
73383;BME280;61600;48.126;11.542;2023-04-07T04:09:58;95527.56;;;7.96;59.60
73383;BME280;61600;48.126;11.542;2023-04-07T04:12:24;95532.16;;;8.01;59.97
73383;BME280;61600;48.126;11.542;2023-04-07T04:14:49;95532.16;;;7.71;61.46
73383;BME280;61600;48.126;11.542;2023-04-07T04:17:15;95527.84;;;7.90;60.89
73383;BME280;61600;48.126;11.542;2023-04-07T04:19:41;95527.31;;;7.73;61.19
73383;BME280;61600;48.126;11.542;2023-04-07T04:22:07;95522.97;;;7.77;60.63
73383;BME280;61600;48.126;11.542;2023-04-07T04:24:32;95523.25;;;7.80;60.71
73383;BME280;61600;48.126;11.542;2023-04-07T04:26:58;95523.50;;;7.69;60.43
73383;BME280;61600;48.126;11.542;2023-04-07T04:29:24;95533.25;;;7.65;60.96
73383;BME280;61600;48.126;11.542;2023-04-07T04:31:49;95524.31;;;7.59;60.79
73383;BME280;61600;48.126;11.542;2023-04-07T04:34:15;95527.81;;;7.75;59.97
73383;BME280;61600;48.126;11.542;2023-04-07T04:36:42;95529.47;;;7.76;59.41
73383;BME280;61600;48.126;11.542;2023-04-07T04:39:07;95525.91;;;7.60;59.96
73383;BME280;61600;48.126;11.542;2023-04-07T04:41:33;95527.00;;;7.64;60.53
73383;BME280;61600;48.126;11.542;2023-04-07T04:44:00;95521.34;;;7.66;60.23
73383;BME280;61600;48.126;11.542;2023-04-07T04:46:26;95524.84;;;7.71;59.69
73383;BME280;61600;48.126;11.542;2023-04-07T04:48:51;95524.84;;;7.51;60.09
73383;BME280;61600;48.126;11.542;2023-04-07T04:51:21;95527.53;;;7.51;60.27
73383;BME280;61600;48.126;11.542;2023-04-07T04:53:47;95530.50;;;7.39;61.40
73383;BME280;61600;48.126;11.542;2023-04-07T04:56:12;95523.75;;;7.42;61.19
73383;BME280;61600;48.126;11.542;2023-04-07T04:58:38;95520.75;;;7.43;61.10
73383;BME280;61600;48.126;11.542;2023-04-07T05:01:06;95518.56;;;7.35;60.87
73383;BME280;61600;48.126;11.542;2023-04-07T05:03:36;95518.88;;;7.44;61.06
73383;BME280;61600;48.126;11.542;2023-04-07T05:06:01;95514.81;;;7.57;60.84
73383;BME280;61600;48.126;11.542;2023-04-07T05:08:27;95510.50;;;7.61;60.68
73383;BME280;61600;48.126;11.542;2023-04-07T05:10:53;95512.69;;;7.74;60.51
73383;BME280;61600;48.126;11.542;2023-04-07T05:13:20;95517.81;;;7.75;61.01
73383;BME280;61600;48.126;11.542;2023-04-07T05:15:46;95508.06;;;7.59;60.85
73383;BME280;61600;48.126;11.542;2023-04-07T05:18:12;95515.91;;;7.61;60.72
73383;BME280;61600;48.126;11.542;2023-04-07T05:20:37;95520.25;;;7.77;60.53
73383;BME280;61600;48.126;11.542;2023-04-07T05:23:03;95507.53;;;7.77;60.62
73383;BME280;61600;48.126;11.542;2023-04-07T05:25:29;95510.78;;;7.64;60.93
73383;BME280;61600;48.126;11.542;2023-04-07T05:27:57;95510.53;;;7.81;60.53
73383;BME280;61600;48.126;11.542;2023-04-07T05:30:25;95509.69;;;7.60;60.73
73383;BME280;61600;48.126;11.542;2023-04-07T05:32:52;95512.09;;;7.36;61.80
73383;BME280;61600;48.126;11.542;2023-04-07T05:35:18;95513.75;;;7.63;61.13
73383;BME280;61600;48.126;11.542;2023-04-07T05:37:43;95514.56;;;7.58;61.44
73383;BME280;61600;48.126;11.542;2023-04-07T05:40:10;95514.03;;;7.81;60.55
73383;BME280;61600;48.126;11.542;2023-04-07T05:42:36;95508.06;;;7.94;60.41
73383;BME280;61600;48.126;11.542;2023-04-07T05:45:02;95517.28;;;7.78;60.69
73383;BME280;61600;48.126;11.542;2023-04-07T05:47:34;95507.53;;;7.87;60.58
73383;BME280;61600;48.126;11.542;2023-04-07T05:50:00;95519.44;;;7.96;60.30
73383;BME280;61600;48.126;11.542;2023-04-07T05:52:26;95507.00;;;7.80;61.19
73383;BME280;61600;48.126;11.542;2023-04-07T05:54:52;95504.28;;;7.90;59.76
73383;BME280;61600;48.126;11.542;2023-04-07T05:57:17;95508.88;;;7.85;60.18
73383;BME280;61600;48.126;11.542;2023-04-07T05:59:43;95511.03;;;7.78;60.17
73383;BME280;61600;48.126;11.542;2023-04-07T06:02:09;95500.22;;;7.78;60.12
73383;BME280;61600;48.126;11.542;2023-04-07T06:04:35;95502.41;;;7.81;60.26
73383;BME280;61600;48.126;11.542;2023-04-07T06:07:02;95502.38;;;7.71;60.53
73383;BME280;61600;48.126;11.542;2023-04-07T06:09:28;95500.22;;;7.88;60.60
73383;BME280;61600;48.126;11.542;2023-04-07T06:11:53;95496.41;;;7.99;59.32
73383;BME280;61600;48.126;11.542;2023-04-07T06:14:19;95494.25;;;8.11;59.20
73383;BME280;61600;48.126;11.542;2023-04-07T06:16:45;95489.34;;;8.18;59.14
73383;BME280;61600;48.126;11.542;2023-04-07T06:19:14;95484.19;;;8.32;58.91
73383;BME280;61600;48.126;11.542;2023-04-07T06:21:40;95487.44;;;8.34;59.19
73383;BME280;61600;48.126;11.542;2023-04-07T06:24:06;95479.03;;;8.40;59.28
73383;BME280;61600;48.126;11.542;2023-04-07T06:26:32;95485.78;;;8.53;59.04
73383;BME280;61600;48.126;11.542;2023-04-07T06:28:58;95476.53;;;8.59;58.92
73383;BME280;61600;48.126;11.542;2023-04-07T06:31:24;95470.03;;;8.60;58.76
73383;BME280;61600;48.126;11.542;2023-04-07T06:33:50;95480.56;;;8.67;58.34
73383;BME280;61600;48.126;11.542;2023-04-07T06:36:16;95475.19;;;8.62;58.17
73383;BME280;61600;48.126;11.542;2023-04-07T06:38:42;95474.63;;;8.65;57.53
73383;BME280;61600;48.126;11.542;2023-04-07T06:41:08;95476.78;;;8.68;57.50
73383;BME280;61600;48.126;11.542;2023-04-07T06:43:37;95470.53;;;8.67;57.73
73383;BME280;61600;48.126;11.542;2023-04-07T06:46:03;95471.31;;;8.73;57.36
73383;BME280;61600;48.126;11.542;2023-04-07T06:48:29;95465.88;;;8.73;57.66
73383;BME280;61600;48.126;11.542;2023-04-07T06:50:54;95474.53;;;8.80;57.36
73383;BME280;61600;48.126;11.542;2023-04-07T06:53:20;95462.09;;;8.74;57.40
73383;BME280;61600;48.126;11.542;2023-04-07T06:55:46;95461.22;;;8.88;57.17
73383;BME280;61600;48.126;11.542;2023-04-07T06:58:12;95476.13;;;8.91;56.93
73383;BME280;61600;48.126;11.542;2023-04-07T07:00:37;95463.63;;;8.95;56.74
73383;BME280;61600;48.126;11.542;2023-04-07T07:03:03;95470.69;;;8.96;56.58
73383;BME280;61600;48.126;11.542;2023-04-07T07:05:29;95468.94;;;9.15;56.45
73383;BME280;61600;48.126;11.542;2023-04-07T07:07:55;95462.09;;;9.23;55.81
73383;BME280;61600;48.126;11.542;2023-04-07T07:10:20;95458.00;;;9.30;55.28
73383;BME280;61600;48.126;11.542;2023-04-07T07:12:50;95464.59;;;8.55;56.64
73383;BME280;61600;48.126;11.542;2023-04-07T07:15:16;95473.34;;;9.01;56.46
73383;BME280;61600;48.126;11.542;2023-04-07T07:17:43;95474.34;;;9.20;55.86
73383;BME280;61600;48.126;11.542;2023-04-07T07:20:09;95469.84;;;9.44;55.09
73383;BME280;61600;48.126;11.542;2023-04-07T07:22:35;95476.16;;;9.69;54.38
73383;BME280;61600;48.126;11.542;2023-04-07T07:25:00;95467.66;;;9.80;53.76
73383;BME280;61600;48.126;11.542;2023-04-07T07:27:26;95479.03;;;9.82;53.84
73383;BME280;61600;48.126;11.542;2023-04-07T07:29:52;95477.06;;;9.93;53.45
73383;BME280;61600;48.126;11.542;2023-04-07T07:32:18;95466.66;;;10.00;53.06
73383;BME280;61600;48.126;11.542;2023-04-07T07:34:43;95473.69;;;10.06;53.03
73383;BME280;61600;48.126;11.542;2023-04-07T07:37:09;95473.97;;;10.04;52.89
73383;BME280;61600;48.126;11.542;2023-04-07T07:39:36;95478.44;;;9.90;53.55
73383;BME280;61600;48.126;11.542;2023-04-07T07:42:02;95474.88;;;9.95;53.21
73383;BME280;61600;48.126;11.542;2023-04-07T07:44:28;95475.63;;;10.00;53.20
73383;BME280;61600;48.126;11.542;2023-04-07T07:46:54;95479.19;;;9.96;53.26
73383;BME280;61600;48.126;11.542;2023-04-07T07:49:19;95478.44;;;9.90;53.17
73383;BME280;61600;48.126;11.542;2023-04-07T07:51:46;95477.59;;;9.95;53.31
73383;BME280;61600;48.126;11.542;2023-04-07T07:54:11;95479.50;;;9.94;53.09
73383;BME280;61600;48.126;11.542;2023-04-07T07:56:37;95472.91;;;10.00;52.83
73383;BME280;61600;48.126;11.542;2023-04-07T07:59:04;95473.25;;;9.94;52.71
73383;BME280;61600;48.126;11.542;2023-04-07T08:01:32;95477.84;;;9.98;52.97
73383;BME280;61600;48.126;11.542;2023-04-07T08:03:58;95475.03;;;9.75;53.48
73383;BME280;61600;48.126;11.542;2023-04-07T08:06:24;95480.53;;;9.70;53.49
73383;BME280;61600;48.126;11.542;2023-04-07T08:08:49;95469.00;;;9.83;52.91
73383;BME280;61600;48.126;11.542;2023-04-07T08:11:16;95478.09;;;9.97;52.78
73383;BME280;61600;48.126;11.542;2023-04-07T08:13:41;95472.81;;;10.11;52.23
73383;BME280;61600;48.126;11.542;2023-04-07T08:16:10;95465.31;;;10.31;51.64
73383;BME280;61600;48.126;11.542;2023-04-07T08:18:36;95469.06;;;10.35;51.45
73383;BME280;61600;48.126;11.542;2023-04-07T08:21:04;95464.69;;;10.39;51.33
73383;BME280;61600;48.126;11.542;2023-04-07T08:23:30;95472.31;;;10.37;51.19
73383;BME280;61600;48.126;11.542;2023-04-07T08:25:56;95462.50;;;10.65;50.83
73383;BME280;61600;48.126;11.542;2023-04-07T08:28:24;95461.66;;;10.88;50.19
73383;BME280;61600;48.126;11.542;2023-04-07T08:30:50;95469.50;;;10.47;50.89
73383;BME280;61600;48.126;11.542;2023-04-07T08:33:16;95459.53;;;10.85;50.25
73383;BME280;61600;48.126;11.542;2023-04-07T08:35:42;95451.69;;;11.02;49.81
73383;BME280;61600;48.126;11.542;2023-04-07T08:38:08;95456.47;;;11.11;49.35
73383;BME280;61600;48.126;11.542;2023-04-07T08:40:34;95453.06;;;11.00;49.51
73383;BME280;61600;48.126;11.542;2023-04-07T08:43:07;95449.53;;;10.57;50.50
73383;BME280;61600;48.126;11.542;2023-04-07T08:45:38;95448.53;;;11.14;49.35
73383;BME280;61600;48.126;11.542;2023-04-07T08:48:13;95449.44;;;10.86;49.30
73383;BME280;61600;48.126;11.542;2023-04-07T08:50:43;95447.69;;;10.95;49.21
73383;BME280;61600;48.126;11.542;2023-04-07T08:53:09;95440.00;;;11.39;48.84
73383;BME280;61600;48.126;11.542;2023-04-07T08:55:37;95450.50;;;11.65;48.23
73383;BME280;61600;48.126;11.542;2023-04-07T08:58:03;95446.31;;;11.72;47.77
73383;BME280;61600;48.126;11.542;2023-04-07T09:00:29;95448.44;;;11.75;47.82
73383;BME280;61600;48.126;11.542;2023-04-07T09:02:55;95445.94;;;11.79;47.80
73383;BME280;61600;48.126;11.542;2023-04-07T09:05:21;95441.81;;;11.81;47.28
73383;BME280;61600;48.126;11.542;2023-04-07T09:07:49;95440.34;;;11.89;47.94
73383;BME280;61600;48.126;11.542;2023-04-07T09:10:15;95447.44;;;11.71;48.20
73383;BME280;61600;48.126;11.542;2023-04-07T09:12:41;95449.09;;;11.86;47.73
73383;BME280;61600;48.126;11.542;2023-04-07T09:15:07;95444.06;;;11.93;47.19
73383;BME280;61600;48.126;11.542;2023-04-07T09:17:33;95444.66;;;11.90;47.17
73383;BME280;61600;48.126;11.542;2023-04-07T09:20:00;95449.06;;;12.18;46.87
73383;BME280;61600;48.126;11.542;2023-04-07T09:22:37;95447.63;;;12.07;46.76
73383;BME280;61600;48.126;11.542;2023-04-07T09:27:35;95443.34;;;11.69;47.61
73383;BME280;61600;48.126;11.542;2023-04-07T09:30:13;95442.75;;;11.90;47.09
73383;BME280;61600;48.126;11.542;2023-04-07T09:32:40;95435.63;;;11.76;47.21
73383;BME280;61600;48.126;11.542;2023-04-07T09:35:06;95431.81;;;11.77;46.49
73383;BME280;61600;48.126;11.542;2023-04-07T09:37:32;95443.75;;;11.25;47.57
73383;BME280;61600;48.126;11.542;2023-04-07T09:39:58;95432.53;;;11.82;46.64
73383;BME280;61600;48.126;11.542;2023-04-07T09:42:25;95423.63;;;11.77;46.91
73383;BME280;61600;48.126;11.542;2023-04-07T09:44:51;95423.41;;;12.06;46.12
73383;BME280;61600;48.126;11.542;2023-04-07T09:47:17;95426.28;;;12.28;46.05
73383;BME280;61600;48.126;11.542;2023-04-07T09:49:51;95424.28;;;12.47;45.40
73383;BME280;61600;48.126;11.542;2023-04-07T09:52:18;95417.31;;;12.68;45.39
73383;BME280;61600;48.126;11.542;2023-04-07T09:54:45;95417.50;;;12.72;44.70
73383;BME280;61600;48.126;11.542;2023-04-07T09:57:12;95411.53;;;12.83;43.63
73383;BME280;61600;48.126;11.542;2023-04-07T09:59:40;95419.63;;;12.75;42.91
73383;BME280;61600;48.126;11.542;2023-04-07T10:02:10;95415.78;;;12.76;42.10
73383;BME280;61600;48.126;11.542;2023-04-07T10:04:36;95417.22;;;12.73;42.11
73383;BME280;61600;48.126;11.542;2023-04-07T10:07:05;95414.75;;;12.99;41.35
73383;BME280;61600;48.126;11.542;2023-04-07T10:09:30;95409.66;;;13.20;41.29
73383;BME280;61600;48.126;11.542;2023-04-07T10:11:59;95410.38;;;13.25;41.42
73383;BME280;61600;48.126;11.542;2023-04-07T10:14:27;95410.97;;;13.36;41.72
73383;BME280;61600;48.126;11.542;2023-04-07T10:16:54;95410.00;;;13.54;41.04
73383;BME280;61600;48.126;11.542;2023-04-07T10:19:22;95413.03;;;13.52;41.16
73383;BME280;61600;48.126;11.542;2023-04-07T10:21:53;95407.44;;;13.58;41.19
73383;BME280;61600;48.126;11.542;2023-04-07T10:27:19;95408.94;;;13.64;41.29
73383;BME280;61600;48.126;11.542;2023-04-07T10:29:49;95403.78;;;14.15;40.13
73383;BME280;61600;48.126;11.542;2023-04-07T10:32:18;95403.31;;;14.35;39.68
73383;BME280;61600;48.126;11.542;2023-04-07T10:37:19;95399.56;;;14.31;39.83
73383;BME280;61600;48.126;11.542;2023-04-07T10:39:49;95391.63;;;14.61;39.87
73383;BME280;61600;48.126;11.542;2023-04-07T10:45:07;95402.78;;;14.33;40.06
73383;BME280;61600;48.126;11.542;2023-04-07T10:47:34;95399.16;;;14.46;40.12
73383;BME280;61600;48.126;11.542;2023-04-07T10:52:43;95403.41;;;13.99;40.66
73383;BME280;61600;48.126;11.542;2023-04-07T10:55:29;95391.63;;;14.52;40.44
73383;BME280;61600;48.126;11.542;2023-04-07T10:58:17;95387.50;;;14.72;40.03
73383;BME280;61600;48.126;11.542;2023-04-07T11:03:41;95396.13;;;14.26;39.96
73383;BME280;61600;48.126;11.542;2023-04-07T11:06:16;95393.16;;;14.36;39.54
73383;BME280;61600;48.126;11.542;2023-04-07T11:08:44;95398.88;;;14.26;39.96
73383;BME280;61600;48.126;11.542;2023-04-07T11:11:15;95395.13;;;14.44;39.34
73383;BME280;61600;48.126;11.542;2023-04-07T11:13:48;95381.22;;;14.71;39.32
73383;BME280;61600;48.126;11.542;2023-04-07T11:16:17;95384.28;;;14.70;38.64
73383;BME280;61600;48.126;11.542;2023-04-07T11:18:45;95384.75;;;14.72;38.25
73383;BME280;61600;48.126;11.542;2023-04-07T11:21:17;95383.47;;;14.78;38.42
73383;BME280;61600;48.126;11.542;2023-04-07T11:23:45;95380.69;;;14.52;39.08
73383;BME280;61600;48.126;11.542;2023-04-07T11:26:13;95373.38;;;14.87;38.62
73383;BME280;61600;48.126;11.542;2023-04-07T11:28:52;95380.81;;;15.04;37.62
73383;BME280;61600;48.126;11.542;2023-04-07T11:31:22;95369.78;;;14.69;38.09
73383;BME280;61600;48.126;11.542;2023-04-07T11:33:53;95389.63;;;14.13;39.29
73383;BME280;61600;48.126;11.542;2023-04-07T11:38:55;95377.78;;;14.26;39.71
73383;BME280;61600;48.126;11.542;2023-04-07T11:41:27;95381.59;;;14.39;39.09
73383;BME280;61600;48.126;11.542;2023-04-07T11:44:11;95380.69;;;14.30;38.28
73383;BME280;61600;48.126;11.542;2023-04-07T11:46:53;95376.50;;;14.55;38.65
73383;BME280;61600;48.126;11.542;2023-04-07T11:49:20;95370.25;;;14.63;38.54
73383;BME280;61600;48.126;11.542;2023-04-07T11:51:46;95367.13;;;14.95;38.75
73383;BME280;61600;48.126;11.542;2023-04-07T11:54:11;95368.59;;;15.35;37.99
73383;BME280;61600;48.126;11.542;2023-04-07T11:56:42;95368.59;;;15.44;37.73
73383;BME280;61600;48.126;11.542;2023-04-07T11:59:18;95369.25;;;15.32;37.46
73383;BME280;61600;48.126;11.542;2023-04-07T12:01:45;95364.91;;;15.57;37.56
73383;BME280;61600;48.126;11.542;2023-04-07T12:04:12;95362.28;;;15.95;37.11
73383;BME280;61600;48.126;11.542;2023-04-07T12:06:40;95358.88;;;15.98;37.23
73383;BME280;61600;48.126;11.542;2023-04-07T12:09:21;95360.50;;;15.99;36.52
73383;BME280;61600;48.126;11.542;2023-04-07T12:11:50;95356.41;;;16.22;35.96
73383;BME280;61600;48.126;11.542;2023-04-07T12:14:15;95357.44;;;16.01;36.00
73383;BME280;61600;48.126;11.542;2023-04-07T12:16:41;95360.19;;;16.01;36.76
73383;BME280;61600;48.126;11.542;2023-04-07T12:19:07;95360.47;;;16.16;36.49
73383;BME280;61600;48.126;11.542;2023-04-07T12:21:33;95359.28;;;16.34;36.09
73383;BME280;61600;48.126;11.542;2023-04-07T12:23:59;95361.56;;;16.32;35.95
73383;BME280;61600;48.126;11.542;2023-04-07T12:26:25;95361.88;;;16.31;36.19
73383;BME280;61600;48.126;11.542;2023-04-07T12:28:50;95365.34;;;16.02;36.23
73383;BME280;61600;48.126;11.542;2023-04-07T12:31:16;95369.06;;;15.80;36.83
73383;BME280;61600;48.126;11.542;2023-04-07T12:33:42;95367.31;;;15.59;36.95
73383;BME280;61600;48.126;11.542;2023-04-07T12:36:08;95366.69;;;15.44;37.09
73383;BME280;61600;48.126;11.542;2023-04-07T12:38:33;95372.63;;;15.29;37.24
73383;BME280;61600;48.126;11.542;2023-04-07T12:40:59;95364.56;;;15.16;37.80
73383;BME280;61600;48.126;11.542;2023-04-07T12:43:30;95361.16;;;15.10;38.33
73383;BME280;61600;48.126;11.542;2023-04-07T12:45:56;95366.47;;;15.24;37.49
73383;BME280;61600;48.126;11.542;2023-04-07T12:48:22;95362.47;;;15.30;37.85
73383;BME280;61600;48.126;11.542;2023-04-07T12:50:48;95371.63;;;15.17;37.89
73383;BME280;61600;48.126;11.542;2023-04-07T12:53:14;95361.28;;;14.96;38.02
73383;BME280;61600;48.126;11.542;2023-04-07T12:55:41;95366.94;;;15.00;38.33
73383;BME280;61600;48.126;11.542;2023-04-07T12:58:07;95365.28;;;14.82;38.81
73383;BME280;61600;48.126;11.542;2023-04-07T13:00:34;95362.72;;;14.77;39.34
73383;BME280;61600;48.126;11.542;2023-04-07T13:03:00;95363.66;;;14.72;39.31
73383;BME280;61600;48.126;11.542;2023-04-07T13:05:27;95372.16;;;14.62;39.07
73383;BME280;61600;48.126;11.542;2023-04-07T13:07:53;95362.63;;;14.42;39.21
73383;BME280;61600;48.126;11.542;2023-04-07T13:10:18;95361.00;;;14.41;39.84
73383;BME280;61600;48.126;11.542;2023-04-07T13:12:45;95367.31;;;14.20;40.18
73383;BME280;61600;48.126;11.542;2023-04-07T13:15:11;95372.81;;;14.28;40.11
73383;BME280;61600;48.126;11.542;2023-04-07T13:17:37;95368.13;;;14.29;40.39
73383;BME280;61600;48.126;11.542;2023-04-07T13:20:04;95367.56;;;14.40;40.35